Time;durP1;ratioP1;P1;durP2;ratioP2;P2;SDS_P1;SDS_P2;PMS_P1;PMS_P2;Temp;Humidity;BMP_temperature;BMP_pressure;BME280_temperature;BME280_humidity;BME280_pressure;Samples;Min_cycle;Max_cycle;Signal;HPM_P1;HPM_P2
2021/09/22 00:02:02;;;;;;;1999.90;999.90;;;;;;;9.91;48.64;102189.16;4980621;28;97989;-76
2021/09/22 00:04:30;;;;;;;1999.90;999.90;;;;;;;9.95;48.66;102201.75;4981789;28;97231;-76
2021/09/22 00:06:58;;;;;;;1999.90;999.90;;;;;;;9.99;48.65;102193.06;4963962;28;99624;-76
2021/09/22 00:09:27;;;;;;;1999.90;999.90;;;;;;;10.04;48.63;102194.19;4980767;28;100620;-75
2021/09/22 00:11:56;;;;;;;1999.90;999.90;;;;;;;10.05;48.62;102193.34;4983678;28;97679;-75
2021/09/22 00:14:26;;;;;;;1999.90;999.90;;;;;;;10.00;48.96;102189.56;4983933;28;96948;-77
2021/09/22 00:16:54;;;;;;;1999.90;999.90;;;;;;;9.97;49.02;102194.72;4981133;28;100940;-75
2021/09/22 00:19:22;;;;;;;1999.90;999.90;;;;;;;9.97;48.93;102191.19;4963196;28;99484;-76
2021/09/22 00:21:50;;;;;;;1999.90;999.90;;;;;;;9.93;49.15;102192.78;4986150;28;97140;-77
2021/09/22 00:24:18;;;;;;;1999.90;999.90;;;;;;;9.90;49.26;102200.59;4969131;28;96869;-77
2021/09/22 00:26:47;;;;;;;1999.90;999.90;;;;;;;9.83;49.99;102205.56;4984577;28;100591;-77
2021/09/22 00:29:15;;;;;;;1999.90;999.90;;;;;;;9.75;49.64;102199.91;4969634;28;100016;-76
2021/09/22 00:31:43;;;;;;;1999.90;999.90;;;;;;;9.75;49.59;102201.66;4967809;28;96646;-76
2021/09/22 00:34:11;;;;;;;1999.90;999.90;;;;;;;9.69;49.93;102196.97;4985128;28;96956;-75
2021/09/22 00:36:39;;;;;;;1999.90;999.90;;;;;;;9.70;49.84;102209.41;4983981;28;99168;-77
2021/09/22 00:39:07;;;;;;;1999.90;999.90;;;;;;;9.68;49.91;102207.53;4984675;28;97562;-76
2021/09/22 00:41:35;;;;;;;1999.90;999.90;;;;;;;9.72;49.80;102210.38;4986742;28;96862;-76
2021/09/22 00:44:05;;;;;;;1999.90;999.90;;;;;;;9.69;49.90;102207.59;4978253;28;96912;-77
2021/09/22 00:46:33;;;;;;;1999.90;999.90;;;;;;;9.68;49.92;102200.44;4984446;28;99219;-75
2021/09/22 00:49:01;;;;;;;1999.90;999.90;;;;;;;9.67;49.93;102209.25;4986667;28;98458;-76
2021/09/22 00:51:36;;;;;;;1999.90;999.90;;;;;;;9.65;50.14;102210.94;4977809;28;98473;-76
2021/09/22 00:54:05;;;;;;;1999.90;999.90;;;;;;;9.61;50.17;102216.94;4967393;28;97272;-76
2021/09/22 00:56:33;;;;;;;1999.90;999.90;;;;;;;9.62;50.17;102212.53;4984062;28;99261;-76
2021/09/22 00:59:01;;;;;;;1999.90;999.90;;;;;;;9.62;50.09;102213.47;4985912;28;99490;-76
2021/09/22 01:01:30;;;;;;;1999.90;999.90;;;;;;;9.61;50.28;102219.59;4975285;28;96868;-76
2021/09/22 01:04:00;;;;;;;1999.90;999.90;;;;;;;9.59;50.24;102215.94;4970111;28;96858;-75
2021/09/22 01:06:28;;;;;;;1999.90;999.90;;;;;;;9.57;50.62;102220.28;4968135;28;101040;-75
2021/09/22 01:08:57;;;;;;;1999.90;999.90;;;;;;;9.54;50.67;102219.22;4985555;28;97546;-75
2021/09/22 01:11:27;;;;;;;1999.90;999.90;;;;;;;9.53;50.81;102217.41;4986387;28;96876;-77
2021/09/22 01:13:55;;;;;;;1999.90;999.90;;;;;;;9.51;50.50;102216.44;4986873;28;96827;-76
2021/09/22 01:16:24;;;;;;;1999.90;999.90;;;;;;;9.51;50.95;102212.03;4977827;28;102881;-78
2021/09/22 01:18:53;;;;;;;1999.90;999.90;;;;;;;9.48;50.80;102206.56;4984276;28;99340;-75
2021/09/22 01:21:22;;;;;;;1999.90;999.90;;;;;;;9.46;50.76;102221.50;4975670;28;96749;-78
2021/09/22 01:23:56;;;;;;;1999.90;999.90;;;;;;;9.46;50.79;102221.50;4969384;28;96766;-76
2021/09/22 01:26:24;;;;;;;1999.90;999.90;;;;;;;9.45;50.87;102224.97;4984486;28;98424;-78
2021/09/22 01:28:54;;;;;;;1999.90;999.90;;;;;;;9.44;50.74;102223.19;4966986;28;100653;-77
2021/09/22 01:31:22;;;;;;;1999.90;999.90;;;;;;;9.44;51.11;102224.91;4977759;28;96784;-76
2021/09/22 01:33:50;;;;;;;1999.90;999.90;;;;;;;9.37;51.41;102223.69;4984620;28;97032;-76
2021/09/22 01:36:32;;;;;;;1999.90;999.90;;;;;;;9.32;51.29;102216.38;4979389;28;100181;-76
2021/09/22 01:39:01;;;;;;;1999.90;999.90;;;;;;;9.29;51.38;102218.84;4968526;28;99787;-78
2021/09/22 01:41:29;;;;;;;1999.90;999.90;;;;;;;9.23;51.72;102215.06;4968354;28;97204;-77
2021/09/22 01:44:03;;;;;;;1999.90;999.90;;;;;;;9.23;51.48;102208.81;4968296;28;97186;-76
2021/09/22 01:46:49;;;;;;;1999.90;999.90;;;;;;;9.20;51.67;102212.25;4982376;28;97795;-78
2021/09/22 01:49:23;;;;;;;1999.90;999.90;;;;;;;9.18;51.91;102213.00;4959200;28;100648;-77
2021/09/22 01:52:03;;;;;;;1999.90;999.90;;;;;;;9.13;52.34;102207.47;4969071;28;97241;-78
2021/09/22 01:54:41;;;;;;;1999.90;999.90;;;;;;;9.10;51.92;102211.72;4986920;28;96907;-76
2021/09/22 01:57:10;;;;;;;1999.90;999.90;;;;;;;9.10;52.05;102217.03;4964720;28;100830;-77
2021/09/22 01:59:38;;;;;;;1999.90;999.90;;;;;;;9.07;52.22;102211.56;4976399;28;97715;-79
2021/09/22 02:02:32;;;;;;;1999.90;999.90;;;;;;;9.08;51.94;102213.38;4968607;28;96950;-76
2021/09/22 02:05:18;;;;;;;1999.90;999.90;;;;;;;9.09;51.96;102215.22;4970637;28;97963;-77
2021/09/22 02:07:56;;;;;;;1999.90;999.90;;;;;;;9.00;52.34;102214.75;4971634;28;100593;-77
2021/09/22 02:10:27;;;;;;;1999.90;999.90;;;;;;;8.98;52.22;102216.41;4992399;28;99002;-76
2021/09/22 02:12:55;;;;;;;1999.90;999.90;;;;;;;8.95;52.38;102216.28;4962869;28;96877;-76
2021/09/22 02:15:24;;;;;;;1999.90;999.90;;;;;;;8.91;52.69;102222.25;4975327;28;97341;-76
2021/09/22 02:18:18;;;;;;;1999.90;999.90;;;;;;;8.87;52.64;102226.50;4981118;28;99677;-78
2021/09/22 02:20:49;;;;;;;1999.90;999.90;;;;;;;8.83;52.72;102226.25;4972797;28;97604;-78
2021/09/22 02:23:25;;;;;;;1999.90;999.90;;;;;;;8.80;52.69;102228.75;4972721;28;97367;-76
2021/09/22 02:25:55;;;;;;;1999.90;999.90;;;;;;;8.74;53.14;102220.47;4983876;28;96935;-76
2021/09/22 02:28:24;;;;;;;1999.90;999.90;;;;;;;8.72;52.89;102212.44;4983586;28;100832;-77
2021/09/22 02:30:54;;;;;;;1999.90;999.90;;;;;;;8.71;53.05;102209.72;4980520;28;99458;-76
2021/09/22 02:33:25;;;;;;;1999.90;999.90;;;;;;;8.72;52.94;102206.22;4967338;28;96942;-76
2021/09/22 02:35:54;;;;;;;1999.90;999.90;;;;;;;8.77;52.90;102223.31;4966939;28;96804;-76
2021/09/22 02:38:27;;;;;;;1999.90;999.90;;;;;;;8.79;53.08;102216.31;4963735;28;99503;-76
2021/09/22 02:40:57;;;;;;;1999.90;999.90;;;;;;;8.77;53.17;102215.34;4980973;28;99653;-75
2021/09/22 02:43:26;;;;;;;1999.90;999.90;;;;;;;8.78;52.83;102211.84;4982955;28;96973;-77
2021/09/22 02:45:54;;;;;;;1999.90;999.90;;;;;;;8.78;52.93;102218.06;4990122;28;96881;-77
2021/09/22 02:48:31;;;;;;;1999.90;999.90;;;;;;;8.74;52.97;102215.16;4981431;28;98161;-76
2021/09/22 02:51:01;;;;;;;1999.90;999.90;;;;;;;8.76;52.87;102218.81;4966464;28;100149;-76
2021/09/22 02:53:31;;;;;;;1999.90;999.90;;;;;;;8.74;53.19;102220.47;4965950;28;97027;-76
2021/09/22 02:55:59;;;;;;;1999.90;999.90;;;;;;;8.68;53.55;102218.41;4983307;28;96963;-77
2021/09/22 02:58:27;;;;;;;1999.90;999.90;;;;;;;8.66;53.41;102219.19;4966055;28;99777;-76
2021/09/22 03:01:00;;;;;;;1999.90;999.90;;;;;;;8.62;53.65;102215.47;4961203;28;99448;-77
2021/09/22 03:03:29;;;;;;;1999.90;999.90;;;;;;;8.56;53.84;102217.78;4965280;28;96790;-76
2021/09/22 03:05:58;;;;;;;1999.90;999.90;;;;;;;8.56;53.65;102212.50;4983039;28;96950;-76
2021/09/22 03:08:26;;;;;;;1999.90;999.90;;;;;;;8.55;53.74;102209.75;4983230;28;99145;-78
2021/09/22 03:10:56;;;;;;;1999.90;999.90;;;;;;;8.56;53.61;102206.25;4981135;28;99439;-76
2021/09/22 03:13:24;;;;;;;1999.90;999.90;;;;;;;8.58;53.65;102213.47;4980889;28;96928;-78
2021/09/22 03:15:52;;;;;;;1999.90;999.90;;;;;;;8.61;53.61;102212.72;4975771;28;97280;-78
2021/09/22 03:18:20;;;;;;;1999.90;999.90;;;;;;;8.58;53.87;102205.53;4981128;28;98025;-78
2021/09/22 03:20:48;;;;;;;1999.90;999.90;;;;;;;8.55;54.11;102204.47;4964155;28;99787;-77
2021/09/22 03:23:16;;;;;;;1999.90;999.90;;;;;;;8.51;54.03;102215.72;4981604;28;97368;-77
2021/09/22 03:25:51;;;;;;;1999.90;999.90;;;;;;;8.45;54.30;102223.31;4966584;28;97992;-78
2021/09/22 03:28:21;;;;;;;1999.90;999.90;;;;;;;8.42;54.30;102216.13;4963416;28;99783;-76
2021/09/22 03:30:51;;;;;;;1999.90;999.90;;;;;;;8.42;54.10;102216.13;4965152;28;99419;-79
2021/09/22 03:33:19;;;;;;;1999.90;999.90;;;;;;;8.43;54.15;102212.63;4981708;28;97361;-79
2021/09/22 03:35:48;;;;;;;1999.90;999.90;;;;;;;8.44;54.13;102214.44;4982028;28;96883;-76
2021/09/22 03:38:18;;;;;;;1999.90;999.90;;;;;;;8.40;54.68;102227.47;4964821;28;101235;-78
2021/09/22 03:40:51;;;;;;;1999.90;999.90;;;;;;;8.38;54.50;102221.19;4974925;28;99956;-77
2021/09/22 03:43:21;;;;;;;1999.90;999.90;;;;;;;8.38;54.51;102226.50;4965203;28;97556;-77
2021/09/22 03:45:49;;;;;;;1999.90;999.90;;;;;;;8.36;54.76;102234.38;4980858;28;96874;-77
2021/09/22 03:48:18;;;;;;;1999.90;999.90;;;;;;;8.34;54.90;102235.09;4963298;28;96823;-77
2021/09/22 03:50:48;;;;;;;1999.90;999.90;;;;;;;8.31;54.86;102232.31;4954023;28;99261;-80
2021/09/22 03:53:21;;;;;;;1999.90;999.90;;;;;;;8.27;55.04;102227.66;4981287;28;96882;-79
2021/09/22 03:55:51;;;;;;;1999.90;999.90;;;;;;;8.23;54.91;102226.59;4978894;28;97278;-77
2021/09/22 03:58:22;;;;;;;1999.90;999.90;;;;;;;8.22;54.95;102230.97;4974428;28;101618;-78
2021/09/22 04:00:51;;;;;;;1999.90;999.90;;;;;;;8.21;54.93;102234.47;4973845;28;98491;-79
2021/09/22 04:03:19;;;;;;;1999.90;999.90;;;;;;;8.22;55.13;102238.94;4980992;28;96981;-78
2021/09/22 04:05:48;;;;;;;1999.90;999.90;;;;;;;8.23;54.81;102231.88;4963566;28;97708;-79
2021/09/22 04:08:16;;;;;;;1999.90;999.90;;;;;;;8.23;55.21;102230.16;4983765;28;97969;-78
2021/09/22 04:10:49;;;;;;;1999.90;999.90;;;;;;;8.24;54.90;102236.34;4985001;28;99736;-79
2021/09/22 04:13:17;;;;;;;1999.90;999.90;;;;;;;8.22;55.02;102230.97;4962460;28;96792;-78
2021/09/22 04:15:51;;;;;;;1999.90;999.90;;;;;;;8.20;55.17;102243.22;4984708;28;97277;-79
2021/09/22 04:18:21;;;;;;;1999.90;999.90;;;;;;;8.21;54.98;102233.53;4979622;28;99494;-79
2021/09/22 04:20:50;;;;;;;1999.90;999.90;;;;;;;8.21;55.16;102231.81;4960323;28;99726;-79
2021/09/22 04:23:19;;;;;;;1999.90;999.90;;;;;;;8.22;55.13;102232.75;4977138;28;96977;-77
2021/09/22 04:25:47;;;;;;;1999.90;999.90;;;;;;;8.24;55.13;102236.34;4967399;28;96956;-78
2021/09/22 04:28:15;;;;;;;1999.90;999.90;;;;;;;8.26;55.01;102228.50;4968069;28;99480;-78
2021/09/22 04:31:03;;;;;;;1999.90;999.90;;;;;;;8.23;55.51;102224.84;4983928;28;99389;-79
2021/09/22 04:34:10;;;;;;;1999.90;999.90;;;;;;;8.23;55.34;102232.81;4943954;28;96861;-78
2021/09/22 04:36:57;;;;;;;1999.90;999.90;;;;;;;8.21;55.32;102234.47;4943984;28;98884;-78
2021/09/22 04:39:44;;;;;;;1999.90;999.90;;;;;;;8.19;55.70;102244.06;4965928;28;99212;-78
2021/09/22 04:42:30;;;;;;;1999.90;999.90;;;;;;;8.21;55.13;102231.81;4980822;28;99685;-78
2021/09/22 04:45:17;;;;;;;1999.90;999.90;;;;;;;8.21;55.42;102231.81;4981454;28;97554;-77
2021/09/22 04:48:07;;;;;;;1999.90;999.90;;;;;;;8.22;55.59;102232.75;4984659;28;97544;-78
2021/09/22 04:50:54;;;;;;;1999.90;999.90;;;;;;;8.20;55.56;102239.69;4990741;28;99773;-77
2021/09/22 04:53:41;;;;;;;1999.90;999.90;;;;;;;8.20;55.57;102240.59;4985519;28;99171;-77
2021/09/22 04:56:27;;;;;;;1999.90;999.90;;;;;;;8.19;55.48;102249.38;4987620;28;96786;-79
2021/09/22 04:59:14;;;;;;;1999.90;999.90;;;;;;;8.15;56.12;102257.06;4987321;28;96722;-78
2021/09/22 05:02:00;;;;;;;1999.90;999.90;;;;;;;8.14;56.10;102253.53;4987557;28;99698;-80
2021/09/22 05:04:48;;;;;;;1999.90;999.90;;;;;;;8.13;55.93;102251.69;4989388;28;99510;-78
2021/09/22 05:07:34;;;;;;;1999.90;999.90;;;;;;;8.07;56.09;102254.03;4989273;28;96572;-76
2021/09/22 05:10:21;;;;;;;1999.90;999.90;;;;;;;8.07;55.86;102248.72;4987789;28;96909;-78
2021/09/22 05:13:08;;;;;;;1999.90;999.90;;;;;;;8.09;55.71;102251.47;4985730;28;97593;-77
2021/09/22 05:15:55;;;;;;;1999.90;999.90;;;;;;;8.59;55.86;102255.09;4985507;28;98597;-78
2021/09/22 05:18:42;;;;;;;1999.90;999.90;;;;;;;8.86;56.26;102252.97;4981000;28;96874;-77
2021/09/22 05:21:30;;;;;;;1999.90;999.90;;;;;;;9.00;56.34;102257.25;4983722;28;97167;-76
2021/09/22 05:24:17;;;;;;;1999.90;999.90;;;;;;;8.64;57.47;102261.53;4995274;28;99426;-78
2021/09/22 05:27:11;;;;;;;1999.90;999.90;;;;;;;9.05;56.62;102255.72;4970487;28;99115;-77
2021/09/22 05:29:58;;;;;;;1999.90;999.90;;;;;;;8.70;57.09;102258.28;4987026;28;96951;-77
2021/09/22 05:32:44;;;;;;;1999.90;999.90;;;;;;;8.59;57.25;102259.47;4988286;28;96981;-78
2021/09/22 05:35:31;;;;;;;1999.90;999.90;;;;;;;8.52;57.43;102260.00;4986793;28;98236;-78
2021/09/22 05:38:19;;;;;;;1999.90;999.90;;;;;;;8.47;57.43;102258.81;4988810;28;99228;-77
2021/09/22 05:41:19;;;;;;;1999.90;999.90;;;;;;;9.01;56.57;102267.00;4963373;28;98112;-78
2021/09/22 05:44:06;;;;;;;1999.90;999.90;;;;;;;9.23;56.52;102272.56;4986676;28;96868;-78
2021/09/22 05:46:53;;;;;;;1999.90;999.90;;;;;;;9.39;56.52;102267.19;4984983;28;98158;-78
2021/09/22 05:49:40;;;;;;;1999.90;999.90;;;;;;;9.55;56.08;102282.19;4986376;28;98400;-74
2021/09/22 05:52:26;;;;;;;1999.90;999.90;;;;;;;9.14;56.88;102283.66;4985737;28;96827;-78
2021/09/22 05:55:14;;;;;;;1999.90;999.90;;;;;;;9.02;57.07;102282.13;4987510;28;96896;-77
2021/09/22 05:58:01;;;;;;;1999.90;999.90;;;;;;;9.01;56.85;102282.94;4984239;28;98091;-77
2021/09/22 06:00:47;;;;;;;1999.90;999.90;;;;;;;9.47;56.10;102280.84;4982472;28;98512;-77
2021/09/22 06:03:34;;;;;;;1999.90;999.90;;;;;;;9.17;56.71;102282.88;4995027;28;96790;-77
2021/09/22 06:06:29;;;;;;;1999.90;999.90;;;;;;;9.07;57.03;102280.59;4982096;28;97359;-76
2021/09/22 06:09:16;;;;;;;1999.90;999.90;;;;;;;8.97;56.93;102278.34;4983096;28;97952;-76
2021/09/22 06:12:01;;;;;;;1999.90;999.90;;;;;;;9.44;56.18;102278.06;4981655;28;98096;-78
2021/09/22 06:14:29;;;;;;;1999.90;999.90;;;;;;;9.20;56.71;102272.44;4994688;28;96811;-77
2021/09/22 06:16:57;;;;;;;1999.90;999.90;;;;;;;9.17;56.56;102280.22;4989112;28;96873;-78
2021/09/22 06:19:35;;;;;;;1999.90;999.90;;;;;;;9.14;56.75;102288.06;4983063;28;98322;-78
2021/09/22 06:22:12;;;;;;;1999.90;999.90;;;;;;;9.10;56.74;102280.75;4999562;28;96947;-77
2021/09/22 06:24:46;;;;;;;1999.90;999.90;;;;;;;9.10;56.63;102283.41;4960573;28;96738;-78
2021/09/22 06:27:16;;;;;;;1999.90;999.90;;;;;;;9.13;56.30;102283.59;4960087;28;97311;-77
2021/09/22 06:29:49;;;;;;;1999.90;999.90;;;;;;;9.13;56.38;102284.47;4966570;28;99580;-77
2021/09/22 06:32:17;;;;;;;1999.90;999.90;;;;;;;9.15;56.13;102289.88;4981677;28;98069;-76
2021/09/22 06:35:05;;;;;;;1999.90;999.90;;;;;;;9.57;55.73;102292.03;4981247;28;97376;-76
2021/09/22 06:37:59;;;;;;;1999.90;999.90;;;;;;;9.41;56.12;102288.53;4980419;28;96958;-76
2021/09/22 06:40:33;;;;;;;1999.90;999.90;;;;;;;9.78;55.48;102287.78;4981870;28;99294;-77
2021/09/22 06:43:03;;;;;;;1999.90;999.90;;;;;;;9.60;55.74;102284.25;4975413;28;98432;-77
2021/09/22 06:45:32;;;;;;;1999.90;999.90;;;;;;;9.95;55.14;102286.84;4983060;28;97056;-77
2021/09/22 06:48:01;;;;;;;1999.90;999.90;;;;;;;9.76;55.55;102284.13;4982706;28;97322;-77
2021/09/22 06:50:31;;;;;;;1999.90;999.90;;;;;;;9.73;55.53;102286.66;4974686;28;100113;-78
2021/09/22 06:52:59;;;;;;;1999.90;999.90;;;;;;;10.08;55.04;102283.91;4957640;28;97122;-77
2021/09/22 06:55:27;;;;;;;1999.90;999.90;;;;;;;9.86;55.35;102282.84;4958908;28;96892;-78
2021/09/22 06:57:55;;;;;;;1999.90;999.90;;;;;;;9.80;55.56;102296.75;4966520;28;96951;-78
2021/09/22 07:00:25;;;;;;;1999.90;999.90;;;;;;;9.78;55.59;102298.41;4996346;28;97675;-78
2021/09/22 07:02:53;;;;;;;1999.90;999.90;;;;;;;9.78;55.50;102303.72;5000229;28;101264;-79
2021/09/22 07:05:22;;;;;;;1999.90;999.90;;;;;;;9.80;55.31;102299.41;4992900;28;96882;-77
2021/09/22 07:07:49;;;;;;;1999.90;999.90;;;;;;;9.79;55.27;102300.22;4988296;28;97255;-78
2021/09/22 07:10:18;;;;;;;1999.90;999.90;;;;;;;9.75;55.40;102300.94;4985471;28;96900;-78
2021/09/22 07:12:47;;;;;;;1999.90;999.90;;;;;;;9.72;55.27;102297.19;5004879;28;99387;-79
2021/09/22 07:15:15;;;;;;;1999.90;999.90;;;;;;;10.02;54.99;102296.94;4996384;28;96802;-78
2021/09/22 07:17:44;;;;;;;1999.90;999.90;;;;;;;9.89;55.10;102298.94;4970051;28;96886;-78
2021/09/22 07:20:13;;;;;;;1999.90;999.90;;;;;;;10.23;54.83;102305.00;4975738;28;99925;-81
2021/09/22 07:22:41;;;;;;;1999.90;999.90;;;;;;;10.46;54.35;102307.03;4960794;28;97889;-81
2021/09/22 07:25:11;;;;;;;1999.90;999.90;;;;;;;10.25;54.86;102307.75;4987841;28;96849;-80
2021/09/22 07:27:39;;;;;;;1999.90;999.90;;;;;;;10.21;54.71;102307.59;4961140;28;96897;-78
2021/09/22 07:30:09;;;;;;;1999.90;999.90;;;;;;;10.20;54.83;102302.19;4971453;28;99543;-78
2021/09/22 07:32:37;;;;;;;1999.90;999.90;;;;;;;10.19;54.85;102314.59;4989979;28;99025;-78
2021/09/22 07:35:07;;;;;;;1999.90;999.90;;;;;;;10.16;54.74;102318.84;4991190;28;96882;-78
2021/09/22 07:37:35;;;;;;;1999.90;999.90;;;;;;;10.12;55.08;102316.88;4963530;28;96973;-79
2021/09/22 07:40:04;;;;;;;1999.90;999.90;;;;;;;10.11;54.87;102321.31;5001578;28;99500;-79
2021/09/22 07:42:32;;;;;;;1999.90;999.90;;;;;;;10.14;54.83;102326.75;4974927;28;96949;-78
2021/09/22 07:45:00;;;;;;;1999.90;999.90;;;;;;;10.46;54.40;102319.41;4962514;28;97125;-79
2021/09/22 07:47:28;;;;;;;1999.90;999.90;;;;;;;10.36;54.55;102318.03;4969760;28;97225;-77
2021/09/22 07:50:00;;;;;;;1999.90;999.90;;;;;;;10.67;54.16;102317.72;4969437;28;101706;-78
2021/09/22 07:52:29;;;;;;;1999.90;999.90;;;;;;;10.87;53.73;102324.84;4984580;28;101211;-78
2021/09/22 07:54:57;;;;;;;1999.90;999.90;;;;;;;10.71;53.91;102317.94;4986309;28;97095;-78
2021/09/22 07:57:25;;;;;;;1999.90;999.90;;;;;;;10.67;54.04;102326.63;4977215;28;97097;-77
2021/09/22 07:59:52;;;;;;;1999.90;999.90;;;;;;;10.63;54.02;102321.97;4984922;28;100034;-78
2021/09/22 08:02:20;;;;;;;1999.90;999.90;;;;;;;10.58;54.21;102331.53;4969835;28;98975;-78
2021/09/22 08:04:49;;;;;;;1999.90;999.90;;;;;;;10.57;54.06;102327.06;4971001;28;96832;-78
2021/09/22 08:07:38;;;;;;;1999.90;999.90;;;;;;;10.61;53.93;102331.66;4988124;28;97156;-78
2021/09/22 08:10:07;;;;;;;1999.90;999.90;;;;;;;10.64;53.90;102331.81;4993048;28;98373;-77
2021/09/22 08:12:35;;;;;;;1999.90;999.90;;;;;;;10.69;53.84;102337.31;4988057;28;99448;-78
2021/09/22 08:15:04;;;;;;;1999.90;999.90;;;;;;;10.69;53.71;102324.00;4987873;28;96849;-78
2021/09/22 08:17:32;;;;;;;1999.90;999.90;;;;;;;10.71;53.83;102328.56;4985911;28;97130;-77
2021/09/22 08:20:00;;;;;;;1999.90;999.90;;;;;;;10.74;53.59;102327.81;4987740;28;98468;-78
2021/09/22 08:22:28;;;;;;;1999.90;999.90;;;;;;;10.98;53.28;102324.47;4960308;28;97770;-78
2021/09/22 08:24:58;;;;;;;1999.90;999.90;;;;;;;11.17;52.59;102328.84;4968001;28;97017;-77
2021/09/22 08:27:26;;;;;;;1999.90;999.90;;;;;;;11.31;52.61;102329.44;4985279;28;97682;-77
2021/09/22 08:29:54;;;;;;;1999.90;999.90;;;;;;;11.16;53.18;102324.34;4969838;28;99590;-78
2021/09/22 08:32:22;;;;;;;1999.90;999.90;;;;;;;11.09;52.99;102333.84;4986345;28;97990;-78
2021/09/22 08:34:50;;;;;;;1999.90;999.90;;;;;;;11.08;53.30;102321.38;4987939;28;96869;-78
2021/09/22 08:37:18;;;;;;;1999.90;999.90;;;;;;;11.30;52.41;102320.56;4967400;28;96788;-78
2021/09/22 08:39:50;;;;;;;1999.90;999.90;;;;;;;11.47;52.31;102322.19;4986722;28;98152;-78
2021/09/22 08:42:19;;;;;;;1999.90;999.90;;;;;;;11.34;52.58;102318.97;4968045;28;99682;-78
2021/09/22 08:44:51;;;;;;;1999.90;999.90;;;;;;;11.29;52.48;102308.03;4988135;28;96853;-78
2021/09/22 08:47:20;;;;;;;1999.90;999.90;;;;;;;11.29;52.60;102316.03;4979959;28;97095;-78
2021/09/22 08:49:48;;;;;;;1999.90;999.90;;;;;;;11.31;52.50;102317.06;4977066;28;97788;-78
2021/09/22 08:52:16;;;;;;;1999.90;999.90;;;;;;;11.29;52.40;102304.50;4988123;28;97625;-78
2021/09/22 08:54:45;;;;;;;1999.90;999.90;;;;;;;11.30;52.41;102312.56;4988358;28;96851;-78
2021/09/22 08:57:13;;;;;;;1999.90;999.90;;;;;;;11.53;51.71;102310.88;4989020;28;97037;-78
2021/09/22 08:59:43;;;;;;;1999.90;999.90;;;;;;;11.43;51.96;102312.25;4998317;28;99836;-78
2021/09/22 09:02:12;;;;;;;1999.90;999.90;;;;;;;11.65;51.50;102317.59;4964882;28;99576;-78
2021/09/22 09:04:42;;;;;;;1999.90;999.90;;;;;;;11.49;51.75;102314.28;4988217;28;96894;-78
2021/09/22 09:07:11;;;;;;;1999.90;999.90;;;;;;;11.72;51.02;102319.72;4968202;28;96995;-79
2021/09/22 09:09:41;;;;;;;1999.90;999.90;;;;;;;11.59;51.44;102313.78;4968345;28;99711;-78
2021/09/22 09:12:16;;;;;;;1999.90;999.90;;;;;;;11.55;51.46;102314.50;4970836;28;99317;-78
2021/09/22 09:14:52;;;;;;;1999.90;999.90;;;;;;;11.53;51.56;102311.78;4987850;28;96852;-78
2021/09/22 09:17:40;;;;;;;1999.90;999.90;;;;;;;11.52;51.43;102309.97;4970455;28;96760;-78
2021/09/22 09:20:17;;;;;;;1999.90;999.90;;;;;;;11.52;51.40;102309.97;4970968;28;98397;-77
2021/09/22 09:23:05;;;;;;;1999.90;999.90;;;;;;;11.57;51.43;102313.75;4994445;28;97764;-78
2021/09/22 09:25:35;;;;;;;1999.90;999.90;;;;;;;11.79;50.70;102310.19;4985961;28;97138;-78
2021/09/22 09:28:16;;;;;;;1999.90;999.90;;;;;;;11.70;50.99;102305.41;4985410;28;97200;-78
2021/09/22 09:30:47;;;;;;;1999.90;999.90;;;;;;;11.69;50.91;102314.22;4987995;28;97857;-77
2021/09/22 09:33:31;;;;;;;1999.90;999.90;;;;;;;11.65;50.95;102301.59;4983673;28;101159;-77
2021/09/22 09:36:04;;;;;;;1999.90;999.90;;;;;;;11.66;51.13;102302.53;4968946;28;96751;-78
2021/09/22 09:38:32;;;;;;;1999.90;999.90;;;;;;;11.65;51.11;102306.94;4962635;28;96924;-77
2021/09/22 09:41:00;;;;;;;1999.90;999.90;;;;;;;11.68;51.09;102304.44;4987918;28;99747;-78
2021/09/22 09:43:28;;;;;;;1999.90;999.90;;;;;;;11.68;51.00;102300.84;4985454;28;99189;-77
2021/09/22 09:45:57;;;;;;;1999.90;999.90;;;;;;;11.69;50.84;102302.69;4969455;28;96950;-78
2021/09/22 09:48:25;;;;;;;1999.90;999.90;;;;;;;11.71;50.71;102296.53;4969743;28;96905;-77
2021/09/22 09:50:55;;;;;;;1999.90;999.90;;;;;;;11.75;50.70;102298.47;4985121;28;98709;-77
2021/09/22 09:53:25;;;;;;;1999.90;999.90;;;;;;;11.77;50.41;102299.47;4984953;28;99098;-77
2021/09/22 09:55:53;;;;;;;1999.90;999.90;;;;;;;11.78;50.37;102298.59;4984091;28;96907;-77
2021/09/22 09:58:22;;;;;;;1999.90;999.90;;;;;;;11.84;50.35;102303.25;4976448;28;97158;-77
2021/09/22 10:00:53;;;;;;;1999.90;999.90;;;;;;;11.84;50.18;102304.19;4968776;28;100553;-77
2021/09/22 10:03:24;;;;;;;1999.90;999.90;;;;;;;11.88;50.00;102305.22;4977398;28;99339;-77
2021/09/22 10:05:53;;;;;;;1999.90;999.90;;;;;;;11.92;50.18;102304.50;4985238;28;97155;-77
2021/09/22 10:08:23;;;;;;;1999.90;999.90;;;;;;;11.94;50.11;102290.34;4968549;28;96920;-77
2021/09/22 10:10:51;;;;;;;1999.90;999.90;;;;;;;11.99;49.94;102301.22;4984685;28;99240;-78
2021/09/22 10:13:20;;;;;;;1999.90;999.90;;;;;;;11.97;49.87;102295.81;4984185;28;99167;-77
2021/09/22 10:15:50;;;;;;;1999.90;999.90;;;;;;;11.99;49.79;102293.22;4984716;28;96840;-78
2021/09/22 10:18:19;;;;;;;1999.90;999.90;;;;;;;12.00;49.84;102292.34;4975439;28;97023;-78
2021/09/22 10:20:50;;;;;;;1999.90;999.90;;;;;;;12.01;49.90;102292.44;4984411;28;100639;-78
2021/09/22 10:23:22;;;;;;;1999.90;999.90;;;;;;;12.03;49.71;102288.06;5001862;28;99747;-78
2021/09/22 10:25:57;;;;;;;1999.90;999.90;;;;;;;12.02;49.66;102296.91;4985654;28;96820;-78
2021/09/22 10:28:36;;;;;;;1999.90;999.90;;;;;;;12.01;49.45;102287.09;4968439;28;96829;-78
2021/09/22 10:31:16;;;;;;;1999.90;999.90;;;;;;;12.00;49.69;102282.59;4984000;28;101934;-78
2021/09/22 10:33:45;;;;;;;1999.90;999.90;;;;;;;12.00;49.71;102279.00;4999901;28;100004;-78
2021/09/22 10:36:16;;;;;;;1999.90;999.90;;;;;;;12.21;48.88;102285.22;4964586;28;97050;-77
2021/09/22 10:38:46;;;;;;;1999.90;999.90;;;;;;;12.13;49.14;102284.91;4985193;28;96910;-78
2021/09/22 10:41:27;;;;;;;1999.90;999.90;;;;;;;12.13;49.12;102283.97;4984749;28;98149;-78
2021/09/22 10:43:55;;;;;;;1999.90;999.90;;;;;;;12.14;49.24;102281.34;5001255;28;97916;-78
2021/09/22 10:46:23;;;;;;;1999.90;999.90;;;;;;;12.15;49.24;102275.19;4968374;28;97429;-78
2021/09/22 10:49:14;;;;;;;1999.90;999.90;;;;;;;12.15;49.20;102275.19;4968910;28;97265;-78
2021/09/22 10:51:46;;;;;;;1999.90;999.90;;;;;;;12.18;49.19;102270.00;4976165;28;99952;-78
2021/09/22 10:54:16;;;;;;;1999.90;999.90;;;;;;;12.23;49.24;102266.59;4984110;28;100415;-77
2021/09/22 10:56:52;;;;;;;1999.90;999.90;;;;;;;12.25;48.45;102257.81;4968311;28;96942;-78
2021/09/22 10:59:28;;;;;;;1999.90;999.90;;;;;;;12.27;48.97;102265.88;4960588;28;96969;-78
2021/09/22 11:01:57;;;;;;;1999.90;999.90;;;;;;;12.30;48.87;102264.22;5002104;28;97546;-77
2021/09/22 11:04:26;;;;;;;1999.90;999.90;;;;;;;12.32;48.86;102262.53;4985371;28;97946;-78
2021/09/22 11:06:57;;;;;;;1999.90;999.90;;;;;;;12.30;48.60;102256.22;4983370;28;96832;-78
2021/09/22 11:09:32;;;;;;;1999.90;999.90;;;;;;;12.33;48.67;102255.44;4979416;28;97305;-78
2021/09/22 11:12:11;;;;;;;1999.90;999.90;;;;;;;12.38;47.82;102256.50;4981661;28;100578;-78
2021/09/22 11:14:42;;;;;;;1999.90;999.90;;;;;;;12.43;48.49;102254.91;4969966;28;99252;-77
2021/09/22 11:17:11;;;;;;;1999.90;999.90;;;;;;;12.45;48.48;102255.88;4978242;28;96916;-78